METAR Data
IDs: Format: Raw Decoded Include TAF

Data at: 1147 UTC 25 Oct 2020

KVLD 251143Z 00000KT 1/4SM FG VV002 19/18 A2992 RMK AO2 T01940183